sensor_id;sensor_type;location;lat;lon;timestamp;P1;durP1;ratioP1;P2;durP2;ratioP2
21639;SDS011;10981;45.462;10.974;2023-06-22T00:00:31;17.42;;;10.23;;
21639;SDS011;10981;45.462;10.974;2023-06-22T00:03:00;20.45;;;9.82;;
21639;SDS011;10981;45.462;10.974;2023-06-22T00:05:28;18.05;;;10.93;;
21639;SDS011;10981;45.462;10.974;2023-06-22T00:07:56;19.15;;;10.25;;
21639;SDS011;10981;45.462;10.974;2023-06-22T00:10:25;17.70;;;9.18;;
21639;SDS011;10981;45.462;10.974;2023-06-22T00:12:53;23.20;;;10.00;;
21639;SDS011;10981;45.462;10.974;2023-06-22T00:15:21;20.35;;;9.88;;
21639;SDS011;10981;45.462;10.974;2023-06-22T00:17:50;16.75;;;10.55;;
21639;SDS011;10981;45.462;10.974;2023-06-22T00:20:19;18.38;;;10.93;;
21639;SDS011;10981;45.462;10.974;2023-06-22T00:22:47;17.45;;;10.18;;
21639;SDS011;10981;45.462;10.974;2023-06-22T00:25:15;22.42;;;10.20;;
21639;SDS011;10981;45.462;10.974;2023-06-22T00:27:43;19.77;;;10.82;;
21639;SDS011;10981;45.462;10.974;2023-06-22T00:30:12;17.40;;;10.88;;
21639;SDS011;10981;45.462;10.974;2023-06-22T00:32:40;21.42;;;10.60;;
21639;SDS011;10981;45.462;10.974;2023-06-22T00:35:08;24.27;;;11.13;;
21639;SDS011;10981;45.462;10.974;2023-06-22T00:37:37;16.35;;;10.95;;
21639;SDS011;10981;45.462;10.974;2023-06-22T00:40:09;17.33;;;12.55;;
21639;SDS011;10981;45.462;10.974;2023-06-22T00:42:39;15.65;;;11.23;;
21639;SDS011;10981;45.462;10.974;2023-06-22T00:45:07;18.52;;;11.55;;
21639;SDS011;10981;45.462;10.974;2023-06-22T00:47:36;23.02;;;11.32;;
21639;SDS011;10981;45.462;10.974;2023-06-22T00:50:06;21.70;;;11.50;;
21639;SDS011;10981;45.462;10.974;2023-06-22T00:52:39;17.58;;;11.98;;
21639;SDS011;10981;45.462;10.974;2023-06-22T00:55:11;21.55;;;12.10;;
21639;SDS011;10981;45.462;10.974;2023-06-22T00:57:41;21.00;;;11.70;;
21639;SDS011;10981;45.462;10.974;2023-06-22T01:00:09;20.88;;;12.90;;
21639;SDS011;10981;45.462;10.974;2023-06-22T01:02:46;21.20;;;12.35;;
21639;SDS011;10981;45.462;10.974;2023-06-22T01:05:19;22.80;;;13.35;;
21639;SDS011;10981;45.462;10.974;2023-06-22T01:10:50;18.17;;;11.60;;
21639;SDS011;10981;45.462;10.974;2023-06-22T01:13:41;22.02;;;11.80;;
21639;SDS011;10981;45.462;10.974;2023-06-22T01:18:57;20.02;;;11.43;;
21639;SDS011;10981;45.462;10.974;2023-06-22T01:21:31;20.75;;;10.57;;
21639;SDS011;10981;45.462;10.974;2023-06-22T01:26:57;19.75;;;10.80;;
21639;SDS011;10981;45.462;10.974;2023-06-22T01:29:37;19.60;;;10.98;;
21639;SDS011;10981;45.462;10.974;2023-06-22T01:32:06;17.35;;;12.23;;
21639;SDS011;10981;45.462;10.974;2023-06-22T01:34:38;20.70;;;12.00;;
21639;SDS011;10981;45.462;10.974;2023-06-22T01:37:08;18.60;;;11.43;;
21639;SDS011;10981;45.462;10.974;2023-06-22T01:39:36;18.02;;;12.73;;
21639;SDS011;10981;45.462;10.974;2023-06-22T01:42:05;16.10;;;10.85;;
21639;SDS011;10981;45.462;10.974;2023-06-22T01:44:33;21.30;;;11.55;;
21639;SDS011;10981;45.462;10.974;2023-06-22T01:47:02;17.73;;;11.10;;
21639;SDS011;10981;45.462;10.974;2023-06-22T01:49:31;16.77;;;11.10;;
21639;SDS011;10981;45.462;10.974;2023-06-22T01:52:00;19.33;;;11.23;;
21639;SDS011;10981;45.462;10.974;2023-06-22T01:54:29;17.98;;;11.52;;
21639;SDS011;10981;45.462;10.974;2023-06-22T01:56:57;24.90;;;10.98;;
21639;SDS011;10981;45.462;10.974;2023-06-22T01:59:32;15.50;;;10.50;;
21639;SDS011;10981;45.462;10.974;2023-06-22T02:02:10;20.30;;;11.98;;
21639;SDS011;10981;45.462;10.974;2023-06-22T02:07:15;16.25;;;11.07;;
21639;SDS011;10981;45.462;10.974;2023-06-22T02:09:46;16.85;;;11.07;;
21639;SDS011;10981;45.462;10.974;2023-06-22T02:12:20;18.83;;;12.53;;
21639;SDS011;10981;45.462;10.974;2023-06-22T02:14:52;19.25;;;11.57;;
21639;SDS011;10981;45.462;10.974;2023-06-22T02:17:21;19.10;;;12.65;;
21639;SDS011;10981;45.462;10.974;2023-06-22T02:19:50;16.40;;;10.82;;
21639;SDS011;10981;45.462;10.974;2023-06-22T02:22:19;15.18;;;11.57;;
21639;SDS011;10981;45.462;10.974;2023-06-22T02:24:47;19.02;;;11.95;;
21639;SDS011;10981;45.462;10.974;2023-06-22T02:27:16;23.95;;;12.25;;
21639;SDS011;10981;45.462;10.974;2023-06-22T02:29:44;21.80;;;11.32;;
21639;SDS011;10981;45.462;10.974;2023-06-22T02:32:12;21.40;;;12.00;;
21639;SDS011;10981;45.462;10.974;2023-06-22T02:34:40;21.77;;;12.18;;
21639;SDS011;10981;45.462;10.974;2023-06-22T02:37:09;17.98;;;12.93;;
21639;SDS011;10981;45.462;10.974;2023-06-22T02:39:39;19.35;;;12.73;;
21639;SDS011;10981;45.462;10.974;2023-06-22T02:42:08;19.52;;;12.30;;
21639;SDS011;10981;45.462;10.974;2023-06-22T02:44:37;18.05;;;11.95;;
21639;SDS011;10981;45.462;10.974;2023-06-22T02:47:06;17.33;;;11.32;;
21639;SDS011;10981;45.462;10.974;2023-06-22T02:49:34;22.42;;;12.65;;
21639;SDS011;10981;45.462;10.974;2023-06-22T02:52:03;17.92;;;12.13;;
21639;SDS011;10981;45.462;10.974;2023-06-22T02:54:32;26.15;;;13.02;;
21639;SDS011;10981;45.462;10.974;2023-06-22T02:57:01;15.30;;;12.13;;
21639;SDS011;10981;45.462;10.974;2023-06-22T02:59:30;20.02;;;12.13;;
21639;SDS011;10981;45.462;10.974;2023-06-22T03:02:08;20.08;;;12.52;;
21639;SDS011;10981;45.462;10.974;2023-06-22T03:04:36;17.85;;;12.10;;
21639;SDS011;10981;45.462;10.974;2023-06-22T03:07:05;22.70;;;13.40;;
21639;SDS011;10981;45.462;10.974;2023-06-22T03:09:34;22.40;;;13.10;;
21639;SDS011;10981;45.462;10.974;2023-06-22T03:12:02;23.17;;;14.23;;
21639;SDS011;10981;45.462;10.974;2023-06-22T03:14:40;18.02;;;12.50;;
21639;SDS011;10981;45.462;10.974;2023-06-22T03:17:08;18.85;;;12.68;;
21639;SDS011;10981;45.462;10.974;2023-06-22T03:19:38;20.40;;;12.95;;
21639;SDS011;10981;45.462;10.974;2023-06-22T03:22:06;20.23;;;13.00;;
21639;SDS011;10981;45.462;10.974;2023-06-22T03:24:34;24.20;;;13.23;;
21639;SDS011;10981;45.462;10.974;2023-06-22T03:27:04;21.02;;;12.45;;
21639;SDS011;10981;45.462;10.974;2023-06-22T03:29:34;27.20;;;13.77;;
21639;SDS011;10981;45.462;10.974;2023-06-22T03:32:02;23.08;;;13.10;;
21639;SDS011;10981;45.462;10.974;2023-06-22T03:34:33;23.88;;;13.18;;
21639;SDS011;10981;45.462;10.974;2023-06-22T03:37:03;18.30;;;12.40;;
21639;SDS011;10981;45.462;10.974;2023-06-22T03:39:31;24.58;;;13.68;;
21639;SDS011;10981;45.462;10.974;2023-06-22T03:42:00;21.30;;;13.95;;
21639;SDS011;10981;45.462;10.974;2023-06-22T03:44:28;20.50;;;12.98;;
21639;SDS011;10981;45.462;10.974;2023-06-22T03:46:56;20.10;;;12.73;;
21639;SDS011;10981;45.462;10.974;2023-06-22T03:49:24;24.90;;;13.82;;
21639;SDS011;10981;45.462;10.974;2023-06-22T03:51:53;17.65;;;12.38;;
21639;SDS011;10981;45.462;10.974;2023-06-22T03:54:21;22.27;;;13.35;;
21639;SDS011;10981;45.462;10.974;2023-06-22T03:56:52;19.30;;;12.07;;
21639;SDS011;10981;45.462;10.974;2023-06-22T03:59:20;20.98;;;11.52;;
21639;SDS011;10981;45.462;10.974;2023-06-22T04:01:48;19.13;;;12.35;;
21639;SDS011;10981;45.462;10.974;2023-06-22T04:04:17;22.55;;;11.25;;
21639;SDS011;10981;45.462;10.974;2023-06-22T04:06:46;18.70;;;12.00;;
21639;SDS011;10981;45.462;10.974;2023-06-22T04:09:14;28.60;;;13.07;;
21639;SDS011;10981;45.462;10.974;2023-06-22T04:11:43;15.98;;;11.52;;
21639;SDS011;10981;45.462;10.974;2023-06-22T04:14:11;18.50;;;12.32;;
21639;SDS011;10981;45.462;10.974;2023-06-22T04:16:39;17.27;;;12.63;;
21639;SDS011;10981;45.462;10.974;2023-06-22T04:19:07;24.40;;;13.88;;
21639;SDS011;10981;45.462;10.974;2023-06-22T04:21:41;27.75;;;13.32;;
21639;SDS011;10981;45.462;10.974;2023-06-22T04:24:11;33.72;;;14.07;;
21639;SDS011;10981;45.462;10.974;2023-06-22T04:26:39;32.28;;;13.30;;
21639;SDS011;10981;45.462;10.974;2023-06-22T04:29:09;22.33;;;13.82;;
21639;SDS011;10981;45.462;10.974;2023-06-22T04:31:37;27.65;;;13.13;;
21639;SDS011;10981;45.462;10.974;2023-06-22T04:34:06;27.25;;;12.98;;
21639;SDS011;10981;45.462;10.974;2023-06-22T04:36:35;26.77;;;13.52;;
21639;SDS011;10981;45.462;10.974;2023-06-22T04:39:08;21.20;;;13.05;;
21639;SDS011;10981;45.462;10.974;2023-06-22T04:41:38;22.95;;;12.48;;
21639;SDS011;10981;45.462;10.974;2023-06-22T04:44:14;20.75;;;13.50;;
21639;SDS011;10981;45.462;10.974;2023-06-22T04:46:57;22.17;;;13.80;;
21639;SDS011;10981;45.462;10.974;2023-06-22T04:49:30;16.95;;;11.98;;
21639;SDS011;10981;45.462;10.974;2023-06-22T04:52:05;19.63;;;13.23;;
21639;SDS011;10981;45.462;10.974;2023-06-22T04:54:35;23.33;;;13.63;;
21639;SDS011;10981;45.462;10.974;2023-06-22T04:57:05;22.40;;;13.40;;
21639;SDS011;10981;45.462;10.974;2023-06-22T04:59:38;22.02;;;13.48;;
21639;SDS011;10981;45.462;10.974;2023-06-22T05:02:08;24.30;;;13.88;;
21639;SDS011;10981;45.462;10.974;2023-06-22T05:04:37;24.73;;;13.07;;
21639;SDS011;10981;45.462;10.974;2023-06-22T05:07:07;23.05;;;13.65;;
21639;SDS011;10981;45.462;10.974;2023-06-22T05:09:36;23.23;;;12.73;;
21639;SDS011;10981;45.462;10.974;2023-06-22T05:12:04;25.48;;;13.77;;
21639;SDS011;10981;45.462;10.974;2023-06-22T05:14:36;26.87;;;13.67;;
21639;SDS011;10981;45.462;10.974;2023-06-22T05:17:05;26.77;;;14.40;;
21639;SDS011;10981;45.462;10.974;2023-06-22T05:19:42;21.13;;;13.25;;
21639;SDS011;10981;45.462;10.974;2023-06-22T05:22:12;23.80;;;13.90;;
21639;SDS011;10981;45.462;10.974;2023-06-22T05:24:41;26.65;;;13.65;;
21639;SDS011;10981;45.462;10.974;2023-06-22T05:27:10;24.52;;;14.20;;
21639;SDS011;10981;45.462;10.974;2023-06-22T05:29:38;24.52;;;14.13;;
21639;SDS011;10981;45.462;10.974;2023-06-22T05:32:07;25.60;;;14.13;;
21639;SDS011;10981;45.462;10.974;2023-06-22T05:34:36;26.58;;;15.38;;
21639;SDS011;10981;45.462;10.974;2023-06-22T05:37:05;24.45;;;11.90;;
21639;SDS011;10981;45.462;10.974;2023-06-22T05:39:33;28.77;;;14.70;;
21639;SDS011;10981;45.462;10.974;2023-06-22T05:42:07;21.33;;;13.57;;
21639;SDS011;10981;45.462;10.974;2023-06-22T05:44:37;30.83;;;14.20;;
21639;SDS011;10981;45.462;10.974;2023-06-22T05:47:07;21.75;;;13.00;;
21639;SDS011;10981;45.462;10.974;2023-06-22T05:49:36;22.05;;;13.35;;
21639;SDS011;10981;45.462;10.974;2023-06-22T05:52:04;24.88;;;13.02;;
21639;SDS011;10981;45.462;10.974;2023-06-22T05:54:32;18.92;;;11.75;;
21639;SDS011;10981;45.462;10.974;2023-06-22T05:57:00;25.60;;;13.02;;
21639;SDS011;10981;45.462;10.974;2023-06-22T05:59:30;23.65;;;12.95;;
21639;SDS011;10981;45.462;10.974;2023-06-22T06:01:58;25.25;;;12.98;;
21639;SDS011;10981;45.462;10.974;2023-06-22T06:04:27;22.95;;;13.23;;
21639;SDS011;10981;45.462;10.974;2023-06-22T06:06:55;24.73;;;13.98;;
21639;SDS011;10981;45.462;10.974;2023-06-22T06:09:24;19.60;;;13.15;;
21639;SDS011;10981;45.462;10.974;2023-06-22T06:11:52;23.20;;;13.27;;
21639;SDS011;10981;45.462;10.974;2023-06-22T06:14:22;26.15;;;15.38;;
21639;SDS011;10981;45.462;10.974;2023-06-22T06:16:51;25.08;;;12.50;;
21639;SDS011;10981;45.462;10.974;2023-06-22T06:19:19;26.33;;;12.63;;
21639;SDS011;10981;45.462;10.974;2023-06-22T06:21:47;20.65;;;12.45;;
21639;SDS011;10981;45.462;10.974;2023-06-22T06:24:16;26.40;;;13.48;;
21639;SDS011;10981;45.462;10.974;2023-06-22T06:26:45;19.17;;;12.73;;
21639;SDS011;10981;45.462;10.974;2023-06-22T06:29:14;20.67;;;13.30;;
21639;SDS011;10981;45.462;10.974;2023-06-22T06:31:43;19.70;;;12.45;;
21639;SDS011;10981;45.462;10.974;2023-06-22T06:34:11;32.58;;;14.15;;
21639;SDS011;10981;45.462;10.974;2023-06-22T06:36:40;29.00;;;13.25;;
21639;SDS011;10981;45.462;10.974;2023-06-22T06:39:08;25.25;;;12.88;;
21639;SDS011;10981;45.462;10.974;2023-06-22T06:41:36;24.33;;;12.63;;
21639;SDS011;10981;45.462;10.974;2023-06-22T06:44:14;22.17;;;13.52;;
21639;SDS011;10981;45.462;10.974;2023-06-22T06:46:42;19.50;;;12.25;;
21639;SDS011;10981;45.462;10.974;2023-06-22T06:49:11;22.83;;;12.35;;
21639;SDS011;10981;45.462;10.974;2023-06-22T06:51:40;20.20;;;12.55;;
21639;SDS011;10981;45.462;10.974;2023-06-22T06:54:08;15.95;;;11.95;;
21639;SDS011;10981;45.462;10.974;2023-06-22T06:56:36;22.08;;;14.07;;
21639;SDS011;10981;45.462;10.974;2023-06-22T06:59:05;26.40;;;13.57;;
21639;SDS011;10981;45.462;10.974;2023-06-22T07:01:33;21.55;;;12.98;;
21639;SDS011;10981;45.462;10.974;2023-06-22T07:04:04;31.38;;;12.73;;
21639;SDS011;10981;45.462;10.974;2023-06-22T07:06:32;28.70;;;13.20;;
21639;SDS011;10981;45.462;10.974;2023-06-22T07:09:02;23.27;;;12.95;;
21639;SDS011;10981;45.462;10.974;2023-06-22T07:11:30;19.08;;;12.73;;
21639;SDS011;10981;45.462;10.974;2023-06-22T07:13:59;23.23;;;13.23;;
21639;SDS011;10981;45.462;10.974;2023-06-22T07:16:28;24.98;;;13.50;;
21639;SDS011;10981;45.462;10.974;2023-06-22T07:18:58;28.65;;;13.60;;
21639;SDS011;10981;45.462;10.974;2023-06-22T07:21:29;19.83;;;13.40;;
21639;SDS011;10981;45.462;10.974;2023-06-22T07:23:58;23.13;;;12.80;;
21639;SDS011;10981;45.462;10.974;2023-06-22T07:26:26;27.08;;;12.73;;
21639;SDS011;10981;45.462;10.974;2023-06-22T07:28:54;22.90;;;13.15;;
21639;SDS011;10981;45.462;10.974;2023-06-22T07:31:25;22.35;;;11.98;;
21639;SDS011;10981;45.462;10.974;2023-06-22T07:33:54;22.65;;;13.60;;
21639;SDS011;10981;45.462;10.974;2023-06-22T07:36:22;24.65;;;12.27;;
21639;SDS011;10981;45.462;10.974;2023-06-22T07:38:50;21.90;;;12.38;;
21639;SDS011;10981;45.462;10.974;2023-06-22T07:41:19;25.52;;;12.38;;
21639;SDS011;10981;45.462;10.974;2023-06-22T07:43:47;22.95;;;11.60;;
21639;SDS011;10981;45.462;10.974;2023-06-22T07:46:15;24.55;;;12.82;;
21639;SDS011;10981;45.462;10.974;2023-06-22T07:48:43;20.63;;;12.02;;
21639;SDS011;10981;45.462;10.974;2023-06-22T07:51:11;24.25;;;13.15;;
21639;SDS011;10981;45.462;10.974;2023-06-22T07:53:41;27.40;;;13.27;;
21639;SDS011;10981;45.462;10.974;2023-06-22T07:56:11;23.67;;;13.70;;
21639;SDS011;10981;45.462;10.974;2023-06-22T07:58:39;31.08;;;13.25;;
21639;SDS011;10981;45.462;10.974;2023-06-22T08:01:10;27.55;;;12.88;;
21639;SDS011;10981;45.462;10.974;2023-06-22T08:03:39;28.90;;;13.65;;
21639;SDS011;10981;45.462;10.974;2023-06-22T08:06:08;27.00;;;14.07;;
21639;SDS011;10981;45.462;10.974;2023-06-22T08:08:36;24.58;;;13.07;;
21639;SDS011;10981;45.462;10.974;2023-06-22T08:11:05;21.40;;;12.90;;
21639;SDS011;10981;45.462;10.974;2023-06-22T08:13:36;26.80;;;13.18;;
21639;SDS011;10981;45.462;10.974;2023-06-22T08:16:04;21.25;;;12.18;;
21639;SDS011;10981;45.462;10.974;2023-06-22T08:18:34;24.83;;;12.20;;
21639;SDS011;10981;45.462;10.974;2023-06-22T08:21:02;24.02;;;12.68;;
21639;SDS011;10981;45.462;10.974;2023-06-22T08:23:32;23.27;;;12.50;;
21639;SDS011;10981;45.462;10.974;2023-06-22T08:26:00;23.52;;;12.23;;
21639;SDS011;10981;45.462;10.974;2023-06-22T08:28:28;18.05;;;10.50;;
21639;SDS011;10981;45.462;10.974;2023-06-22T08:30:56;18.55;;;10.07;;
21639;SDS011;10981;45.462;10.974;2023-06-22T08:33:25;22.95;;;10.30;;
21639;SDS011;10981;45.462;10.974;2023-06-22T08:35:55;23.25;;;11.75;;
21639;SDS011;10981;45.462;10.974;2023-06-22T08:38:25;20.67;;;12.75;;
21639;SDS011;10981;45.462;10.974;2023-06-22T08:40:53;21.45;;;12.98;;
21639;SDS011;10981;45.462;10.974;2023-06-22T08:43:21;30.10;;;12.65;;
21639;SDS011;10981;45.462;10.974;2023-06-22T08:45:49;25.52;;;11.40;;
21639;SDS011;10981;45.462;10.974;2023-06-22T08:48:21;19.88;;;12.25;;
21639;SDS011;10981;45.462;10.974;2023-06-22T08:50:49;22.75;;;12.00;;
21639;SDS011;10981;45.462;10.974;2023-06-22T08:53:17;23.48;;;12.00;;
21639;SDS011;10981;45.462;10.974;2023-06-22T08:55:45;24.90;;;13.02;;
21639;SDS011;10981;45.462;10.974;2023-06-22T08:58:13;24.27;;;11.48;;
21639;SDS011;10981;45.462;10.974;2023-06-22T09:00:42;21.20;;;10.98;;
21639;SDS011;10981;45.462;10.974;2023-06-22T09:03:11;14.25;;;11.20;;
21639;SDS011;10981;45.462;10.974;2023-06-22T09:05:42;22.45;;;12.23;;
21639;SDS011;10981;45.462;10.974;2023-06-22T09:08:10;22.00;;;12.32;;
21639;SDS011;10981;45.462;10.974;2023-06-22T09:10:38;19.00;;;11.48;;
21639;SDS011;10981;45.462;10.974;2023-06-22T09:13:07;20.95;;;12.32;;
21639;SDS011;10981;45.462;10.974;2023-06-22T09:15:38;23.27;;;12.85;;
21639;SDS011;10981;45.462;10.974;2023-06-22T09:18:06;21.48;;;11.85;;
21639;SDS011;10981;45.462;10.974;2023-06-22T09:20:37;19.40;;;11.50;;
21639;SDS011;10981;45.462;10.974;2023-06-22T09:23:08;14.70;;;11.40;;
21639;SDS011;10981;45.462;10.974;2023-06-22T09:25:36;19.80;;;11.63;;
21639;SDS011;10981;45.462;10.974;2023-06-22T09:28:05;23.98;;;12.02;;
21639;SDS011;10981;45.462;10.974;2023-06-22T09:30:33;19.48;;;12.13;;
21639;SDS011;10981;45.462;10.974;2023-06-22T09:33:01;22.85;;;12.48;;
21639;SDS011;10981;45.462;10.974;2023-06-22T09:35:29;24.88;;;12.52;;
21639;SDS011;10981;45.462;10.974;2023-06-22T09:37:57;27.20;;;11.95;;
21639;SDS011;10981;45.462;10.974;2023-06-22T09:40:26;18.65;;;12.30;;
21639;SDS011;10981;45.462;10.974;2023-06-22T09:42:54;20.92;;;11.73;;
21639;SDS011;10981;45.462;10.974;2023-06-22T09:45:22;16.02;;;10.60;;
21639;SDS011;10981;45.462;10.974;2023-06-22T09:47:51;17.48;;;10.88;;
21639;SDS011;10981;45.462;10.974;2023-06-22T09:50:19;17.25;;;10.32;;
21639;SDS011;10981;45.462;10.974;2023-06-22T09:52:47;20.17;;;10.65;;
21639;SDS011;10981;45.462;10.974;2023-06-22T09:55:21;17.42;;;10.73;;
21639;SDS011;10981;45.462;10.974;2023-06-22T09:57:50;21.92;;;10.38;;
21639;SDS011;10981;45.462;10.974;2023-06-22T10:00:18;13.75;;;9.80;;
21639;SDS011;10981;45.462;10.974;2023-06-22T10:02:46;16.95;;;10.05;;
21639;SDS011;10981;45.462;10.974;2023-06-22T10:05:15;19.50;;;9.93;;
21639;SDS011;10981;45.462;10.974;2023-06-22T10:07:44;14.63;;;9.65;;
21639;SDS011;10981;45.462;10.974;2023-06-22T10:10:12;16.17;;;10.00;;
21639;SDS011;10981;45.462;10.974;2023-06-22T10:12:43;12.20;;;9.73;;
21639;SDS011;10981;45.462;10.974;2023-06-22T10:15:21;17.90;;;10.05;;
21639;SDS011;10981;45.462;10.974;2023-06-22T10:17:49;19.77;;;9.57;;
21639;SDS011;10981;45.462;10.974;2023-06-22T10:20:18;14.65;;;9.10;;
21639;SDS011;10981;45.462;10.974;2023-06-22T10:22:47;16.52;;;10.18;;
21639;SDS011;10981;45.462;10.974;2023-06-22T10:25:18;20.10;;;10.15;;
21639;SDS011;10981;45.462;10.974;2023-06-22T10:27:47;15.35;;;9.63;;
21639;SDS011;10981;45.462;10.974;2023-06-22T10:30:15;17.25;;;10.93;;
21639;SDS011;10981;45.462;10.974;2023-06-22T10:32:43;15.15;;;10.27;;
21639;SDS011;10981;45.462;10.974;2023-06-22T10:35:12;17.05;;;10.55;;
21639;SDS011;10981;45.462;10.974;2023-06-22T10:37:44;19.50;;;10.82;;
21639;SDS011;10981;45.462;10.974;2023-06-22T10:40:13;17.38;;;10.02;;
21639;SDS011;10981;45.462;10.974;2023-06-22T10:42:45;13.32;;;9.63;;
21639;SDS011;10981;45.462;10.974;2023-06-22T10:45:13;13.55;;;9.50;;
21639;SDS011;10981;45.462;10.974;2023-06-22T10:47:41;13.15;;;10.02;;
21639;SDS011;10981;45.462;10.974;2023-06-22T10:50:10;19.30;;;10.30;;
21639;SDS011;10981;45.462;10.974;2023-06-22T10:52:39;15.48;;;10.27;;
21639;SDS011;10981;45.462;10.974;2023-06-22T10:55:09;14.68;;;9.70;;
21639;SDS011;10981;45.462;10.974;2023-06-22T10:57:38;17.50;;;9.57;;
21639;SDS011;10981;45.462;10.974;2023-06-22T11:00:11;14.32;;;8.73;;
21639;SDS011;10981;45.462;10.974;2023-06-22T11:02:40;19.00;;;8.48;;
21639;SDS011;10981;45.462;10.974;2023-06-22T11:05:09;21.00;;;9.02;;
21639;SDS011;10981;45.462;10.974;2023-06-22T11:07:38;13.23;;;8.90;;
21639;SDS011;10981;45.462;10.974;2023-06-22T11:10:15;14.23;;;9.43;;
21639;SDS011;10981;45.462;10.974;2023-06-22T11:12:43;13.73;;;9.45;;
21639;SDS011;10981;45.462;10.974;2023-06-22T11:15:12;18.05;;;9.50;;
21639;SDS011;10981;45.462;10.974;2023-06-22T11:17:40;15.88;;;9.98;;
21639;SDS011;10981;45.462;10.974;2023-06-22T11:20:08;14.52;;;10.20;;
21639;SDS011;10981;45.462;10.974;2023-06-22T11:22:39;15.20;;;9.80;;
21639;SDS011;10981;45.462;10.974;2023-06-22T11:25:08;21.50;;;11.18;;
21639;SDS011;10981;45.462;10.974;2023-06-22T11:27:38;17.08;;;10.57;;
21639;SDS011;10981;45.462;10.974;2023-06-22T11:30:10;20.15;;;10.75;;
21639;SDS011;10981;45.462;10.974;2023-06-22T11:32:38;16.98;;;10.07;;
21639;SDS011;10981;45.462;10.974;2023-06-22T11:35:07;16.60;;;11.30;;
21639;SDS011;10981;45.462;10.974;2023-06-22T11:37:35;18.38;;;10.70;;
21639;SDS011;10981;45.462;10.974;2023-06-22T11:40:03;21.33;;;10.98;;
21639;SDS011;10981;45.462;10.974;2023-06-22T11:42:34;20.15;;;11.88;;
21639;SDS011;10981;45.462;10.974;2023-06-22T11:45:05;18.90;;;11.65;;
21639;SDS011;10981;45.462;10.974;2023-06-22T11:47:34;19.95;;;11.40;;
21639;SDS011;10981;45.462;10.974;2023-06-22T11:50:03;17.83;;;11.32;;
21639;SDS011;10981;45.462;10.974;2023-06-22T11:52:33;20.52;;;12.48;;
21639;SDS011;10981;45.462;10.974;2023-06-22T11:55:03;20.02;;;12.77;;
21639;SDS011;10981;45.462;10.974;2023-06-22T11:57:33;22.85;;;12.45;;
21639;SDS011;10981;45.462;10.974;2023-06-22T12:00:03;23.25;;;12.10;;
21639;SDS011;10981;45.462;10.974;2023-06-22T12:02:43;22.83;;;12.40;;
21639;SDS011;10981;45.462;10.974;2023-06-22T12:05:12;22.60;;;14.13;;
21639;SDS011;10981;45.462;10.974;2023-06-22T12:07:41;25.42;;;11.68;;
21639;SDS011;10981;45.462;10.974;2023-06-22T12:10:09;16.02;;;11.77;;
21639;SDS011;10981;45.462;10.974;2023-06-22T12:12:38;19.75;;;12.25;;
21639;SDS011;10981;45.462;10.974;2023-06-22T12:15:07;19.20;;;12.57;;
21639;SDS011;10981;45.462;10.974;2023-06-22T12:17:36;19.20;;;12.43;;
21639;SDS011;10981;45.462;10.974;2023-06-22T12:20:05;19.30;;;11.77;;
21639;SDS011;10981;45.462;10.974;2023-06-22T12:22:37;18.02;;;11.60;;
21639;SDS011;10981;45.462;10.974;2023-06-22T12:25:06;21.05;;;12.18;;
21639;SDS011;10981;45.462;10.974;2023-06-22T12:27:37;19.98;;;12.60;;
21639;SDS011;10981;45.462;10.974;2023-06-22T12:30:06;17.80;;;12.07;;
21639;SDS011;10981;45.462;10.974;2023-06-22T12:32:35;23.00;;;11.60;;
21639;SDS011;10981;45.462;10.974;2023-06-22T12:35:04;16.02;;;11.05;;
21639;SDS011;10981;45.462;10.974;2023-06-22T12:37:34;17.88;;;11.20;;
21639;SDS011;10981;45.462;10.974;2023-06-22T12:40:02;21.55;;;11.55;;
21639;SDS011;10981;45.462;10.974;2023-06-22T12:42:31;19.38;;;11.88;;
21639;SDS011;10981;45.462;10.974;2023-06-22T12:45:00;18.08;;;11.52;;
21639;SDS011;10981;45.462;10.974;2023-06-22T12:47:28;18.05;;;11.55;;
21639;SDS011;10981;45.462;10.974;2023-06-22T12:50:00;16.90;;;11.35;;
21639;SDS011;10981;45.462;10.974;2023-06-22T12:52:29;25.38;;;12.15;;
21639;SDS011;10981;45.462;10.974;2023-06-22T12:54:59;17.63;;;11.80;;
21639;SDS011;10981;45.462;10.974;2023-06-22T12:57:28;23.63;;;11.15;;
21639;SDS011;10981;45.462;10.974;2023-06-22T12:59:56;15.73;;;11.85;;
21639;SDS011;10981;45.462;10.974;2023-06-22T13:02:28;25.48;;;11.20;;
21639;SDS011;10981;45.462;10.974;2023-06-22T13:04:57;30.02;;;11.85;;
21639;SDS011;10981;45.462;10.974;2023-06-22T13:07:25;21.08;;;11.80;;
21639;SDS011;10981;45.462;10.974;2023-06-22T13:09:53;26.77;;;12.27;;
21639;SDS011;10981;45.462;10.974;2023-06-22T13:12:21;15.32;;;11.27;;
21639;SDS011;10981;45.462;10.974;2023-06-22T13:14:50;15.18;;;12.07;;
21639;SDS011;10981;45.462;10.974;2023-06-22T13:17:18;20.55;;;12.32;;
21639;SDS011;10981;45.462;10.974;2023-06-22T13:19:46;19.77;;;11.50;;
21639;SDS011;10981;45.462;10.974;2023-06-22T13:22:28;15.10;;;10.15;;
21639;SDS011;10981;45.462;10.974;2023-06-22T13:24:57;23.85;;;10.07;;
21639;SDS011;10981;45.462;10.974;2023-06-22T13:27:26;16.77;;;10.48;;
21639;SDS011;10981;45.462;10.974;2023-06-22T13:29:55;19.85;;;10.35;;
21639;SDS011;10981;45.462;10.974;2023-06-22T13:32:23;19.63;;;9.63;;
21639;SDS011;10981;45.462;10.974;2023-06-22T13:34:52;16.15;;;10.43;;
21639;SDS011;10981;45.462;10.974;2023-06-22T13:37:21;19.67;;;11.18;;
21639;SDS011;10981;45.462;10.974;2023-06-22T13:39:49;18.23;;;11.02;;
21639;SDS011;10981;45.462;10.974;2023-06-22T13:42:17;15.98;;;11.15;;
21639;SDS011;10981;45.462;10.974;2023-06-22T13:44:45;23.90;;;12.43;;
21639;SDS011;10981;45.462;10.974;2023-06-22T13:47:14;20.42;;;11.05;;
21639;SDS011;10981;45.462;10.974;2023-06-22T13:49:42;17.52;;;14.10;;
21639;SDS011;10981;45.462;10.974;2023-06-22T13:52:10;17.17;;;10.63;;
21639;SDS011;10981;45.462;10.974;2023-06-22T13:54:39;28.60;;;11.52;;
21639;SDS011;10981;45.462;10.974;2023-06-22T13:57:08;18.25;;;12.10;;
21639;SDS011;10981;45.462;10.974;2023-06-22T13:59:36;18.55;;;10.52;;
21639;SDS011;10981;45.462;10.974;2023-06-22T14:02:04;15.05;;;10.75;;
21639;SDS011;10981;45.462;10.974;2023-06-22T14:04:33;18.33;;;10.80;;
21639;SDS011;10981;45.462;10.974;2023-06-22T14:07:01;17.83;;;9.70;;
21639;SDS011;10981;45.462;10.974;2023-06-22T14:09:30;18.67;;;10.48;;
21639;SDS011;10981;45.462;10.974;2023-06-22T14:12:02;20.95;;;9.75;;
21639;SDS011;10981;45.462;10.974;2023-06-22T14:14:33;18.42;;;10.43;;
21639;SDS011;10981;45.462;10.974;2023-06-22T14:17:01;17.55;;;9.50;;
21639;SDS011;10981;45.462;10.974;2023-06-22T14:19:30;19.92;;;9.05;;
21639;SDS011;10981;45.462;10.974;2023-06-22T14:21:58;22.98;;;10.30;;
21639;SDS011;10981;45.462;10.974;2023-06-22T14:24:26;17.52;;;9.35;;
21639;SDS011;10981;45.462;10.974;2023-06-22T14:26:57;19.38;;;8.93;;
21639;SDS011;10981;45.462;10.974;2023-06-22T14:29:29;21.42;;;15.95;;
21639;SDS011;10981;45.462;10.974;2023-06-22T14:31:57;17.83;;;9.27;;
21639;SDS011;10981;45.462;10.974;2023-06-22T14:34:27;17.98;;;10.50;;